地図

経路データ

SID SEASON NUMBER BASIN SUBBASIN NAME ISO_TIME NATURE LAT LON WMO_WIND WMO_PRES WMO_AGENCY TRACK_TYPE DIST2LAND LANDFALL IFLAG USA_AGENCY USA_ATCF_ID USA_LAT USA_LON USA_RECORD USA_STATUS USA_WIND USA_PRES USA_SSHS USA_R34_NE USA_R34_SE USA_R34_SW USA_R34_NW USA_R50_NE USA_R50_SE USA_R50_SW USA_R50_NW USA_R64_NE USA_R64_SE USA_R64_SW USA_R64_NW USA_POCI USA_ROCI USA_RMW USA_EYE TOKYO_LAT TOKYO_LON TOKYO_GRADE TOKYO_WIND TOKYO_PRES TOKYO_R50_DIR TOKYO_R50_LONG TOKYO_R50_SHORT TOKYO_R30_DIR TOKYO_R30_LONG TOKYO_R30_SHORT TOKYO_LAND CMA_LAT CMA_LON CMA_CAT CMA_WIND CMA_PRES HKO_LAT HKO_LON HKO_CAT HKO_WIND HKO_PRES NEWDELHI_LAT NEWDELHI_LON NEWDELHI_GRADE NEWDELHI_WIND NEWDELHI_PRES NEWDELHI_CI NEWDELHI_DP NEWDELHI_POCI REUNION_LAT REUNION_LON REUNION_TYPE REUNION_WIND REUNION_PRES REUNION_TNUM REUNION_CI REUNION_RMW REUNION_R34_NE REUNION_R34_SE REUNION_R34_SW REUNION_R34_NW REUNION_R50_NE REUNION_R50_SE REUNION_R50_SW REUNION_R50_NW REUNION_R64_NE REUNION_R64_SE REUNION_R64_SW REUNION_R64_NW BOM_LAT BOM_LON BOM_TYPE BOM_WIND BOM_PRES BOM_TNUM BOM_CI BOM_RMW BOM_R34_NE BOM_R34_SE BOM_R34_SW BOM_R34_NW BOM_R50_NE BOM_R50_SE BOM_R50_SW BOM_R50_NW BOM_R64_NE BOM_R64_SE BOM_R64_SW BOM_R64_NW BOM_ROCI BOM_POCI BOM_EYE BOM_POS_METHOD BOM_PRES_METHOD NADI_LAT NADI_LON NADI_CAT NADI_WIND NADI_PRES WELLINGTON_LAT WELLINGTON_LON WELLINGTON_WIND WELLINGTON_PRES DS824_LAT DS824_LON DS824_STAGE DS824_WIND DS824_PRES TD9636_LAT TD9636_LON TD9636_STAGE TD9636_WIND TD9636_PRES TD9635_LAT TD9635_LON TD9635_WIND TD9635_PRES TD9635_ROCI NEUMANN_LAT NEUMANN_LON NEUMANN_CLASS NEUMANN_WIND NEUMANN_PRES MLC_LAT MLC_LON MLC_CLASS MLC_WIND MLC_PRES USA_GUST BOM_GUST BOM_GUST_PER REUNION_GUST REUNION_GUST_PER USA_SEAHGT USA_SEARAD_NE USA_SEARAD_SE USA_SEARAD_SW USA_SEARAD_NW STORM_SPEED STORM_DIR
1928070S09060 1928 18 SI MM NOT_NAMED 1928-03-10 00:00:00 TS -8.80000 59.6000 main 1159 1095 _________O____ -1 -8.80000 59.6000 TC 25 13 238
1928070S09060 1928 18 SI MM NOT_NAMED 1928-03-10 03:00:00 TS -9.14017 59.0502 main 1095 1016 _________P____ -1 -9.14017 59.0502 TC 25 13 237
1928070S09060 1928 18 SI MM NOT_NAMED 1928-03-10 06:00:00 TS -9.50000 58.5000 main 1016 949 _________O____ -1 -9.50000 58.5000 TC 25 13 235
1928070S09060 1928 18 SI MM NOT_NAMED 1928-03-10 09:00:00 TS -9.89241 57.9499 main 938 871 _________P____ -1 -9.89241 57.9499 TC 25 14 234
1928070S09060 1928 18 SI MM NOT_NAMED 1928-03-10 12:00:00 TS -10.3000 57.4000 main 871 804 _________O____ -1 -10.3000 57.4000 TC 25 14 233
1928070S09060 1928 18 SI MM NOT_NAMED 1928-03-10 15:00:00 TS -10.6999 56.8424 main 794 728 _________P____ -1 -10.6999 56.8424 TC 25 13 233
1928070S09060 1928 18 SI MM NOT_NAMED 1928-03-10 18:00:00 TS -11.1000 56.3000 main 728 663 _________O____ -1 -11.1000 56.3000 TC 25 13 233
1928070S09060 1928 18 SI MM NOT_NAMED 1928-03-10 21:00:00 TS -11.5075 55.7625 main 663 599 _________P____ -1 -11.5075 55.7625 TC 25 13 231
1928070S09060 1928 18 SI MM NOT_NAMED 1928-03-11 00:00:00 TS -11.9000 55.3000 main 599 558 _________O____ -1 -11.9000 55.3000 TC 25 11 227
1928070S09060 1928 18 SI MM NOT_NAMED 1928-03-11 03:00:00 TS -12.2424 54.9548 main 558 516 _________P____ -1 -12.2424 54.9548 TC 25 9 220
1928070S09060 1928 18 SI MM NOT_NAMED 1928-03-11 06:00:00 TS -12.6000 54.7000 main 516 484 _________O____ -1 -12.6000 54.7000 TC 25 9 210
1928070S09060 1928 18 SI MM NOT_NAMED 1928-03-11 09:00:00 TS -13.0200 54.4849 main 484 451 _________P____ -1 -13.0200 54.4849 TC 25 10 203
1928070S09060 1928 18 SI MM NOT_NAMED 1928-03-11 12:00:00 TS -13.5000 54.3000 main 451 410 _________O____ -1 -13.5000 54.3000 TC 25 11 201
1928070S09060 1928 18 SI MM NOT_NAMED 1928-03-11 15:00:00 TS -14.0350 54.0851 main 410 371 _________P____ -1 -14.0350 54.0851 TC 25 12 199
1928070S09060 1928 18 SI MM NOT_NAMED 1928-03-11 18:00:00 TS -14.6000 53.9000 main 371 354 _________O____ -1 -14.6000 53.9000 TC 25 12 196
1928070S09060 1928 18 SI MM NOT_NAMED 1928-03-11 21:00:00 TS -15.1425 53.7625 main 354 343 _________P____ -1 -15.1425 53.7625 TC 25 11 190
1928070S09060 1928 18 SI MM NOT_NAMED 1928-03-12 00:00:00 TS -15.7000 53.7000 main 344 344 _________O____ -1 -15.7000 53.7000 TC 25 12 182
1928070S09060 1928 18 SI MM NOT_NAMED 1928-03-12 03:00:00 TS -16.3000 53.7199 main 356 356 _________P____ -1 -16.3000 53.7199 TC 25 12 175
1928070S09060 1928 18 SI MM NOT_NAMED 1928-03-12 06:00:00 TS -16.9000 53.8000 main 390 390 _________O____ -1 -16.9000 53.8000 TC 25 12 172
1928070S09060 1928 18 SI MM NOT_NAMED 1928-03-12 09:00:00 TS -17.4875 53.8924 main 418 362 _________P____ -1 -17.4875 53.8924 TC 25 11 170
1928070S09060 1928 18 SI MM NOT_NAMED 1928-03-12 12:00:00 TS -18.0000 54.0000 main 362 316 _________O____ -1 -18.0000 54.0000 TC 25 9 167
1928070S09060 1928 18 SI MM NOT_NAMED 1928-03-12 15:00:00 TS -18.3800 54.1001 main 316 281 _________P____ -1 -18.3800 54.1001 TC 25 7 165
1928070S09060 1928 18 SI MM NOT_NAMED 1928-03-12 18:00:00 TS -18.7000 54.2000 main 281 246 _________O____ -1 -18.7000 54.2000 TC 25 7 164
1928070S09060 1928 18 SI MM NOT_NAMED 1928-03-12 21:00:00 TS -19.0200 54.2852 main 246 202 _________P____ -1 -19.0200 54.2852 TC 25 7 165
1928070S09060 1928 18 SI MM NOT_NAMED 1928-03-13 00:00:00 TS -19.4000 54.4000 main 202 143 _________O____ -1 -19.4000 54.4000 TC 25 9 163
1928070S09060 1928 18 SI MM NOT_NAMED 1928-03-13 03:00:00 TS -19.9200 54.5775 main 143 76 _________P____ -1 -19.9200 54.5775 TC 25 12 161
1928070S09060 1928 18 SI MM NOT_NAMED 1928-03-13 06:00:00 TS -20.5000 54.8000 main 76 23 _________O____ -1 -20.5000 54.8000 TC 25 12 159
1928070S09060 1928 18 SI MM NOT_NAMED 1928-03-13 09:00:00 TS -21.0800 55.0499 main 20 10 _________P____ -1 -21.0800 55.0499 TC 25 12 157
1928070S09060 1928 18 SI MM NOT_NAMED 1928-03-13 12:00:00 TS -21.6000 55.3000 main 33 33 _________O____ -1 -21.6000 55.3000 TC 25 10 155
1928070S09060 1928 18 SI MM NOT_NAMED 1928-03-13 15:00:00 TS -21.9874 55.5003 main 67 67 _________P____ -1 -21.9874 55.5003 TC 25 8 152
1928070S09060 1928 18 SI MM NOT_NAMED 1928-03-13 18:00:00 TS -22.3000 55.7000 main 101 101 _________O____ -1 -22.3000 55.7000 TC 25 7 145
1928070S09060 1928 18 SI MM NOT_NAMED 1928-03-13 21:00:00 TS -22.5925 55.9501 main 140 140 _________P____ -1 -22.5925 55.9501 TC 25 8 142
1928070S09060 1928 18 SI MM NOT_NAMED 1928-03-14 00:00:00 TS -22.9000 56.2000 main 178 178 _________O____ -1 -22.9000 56.2000 TC 25 8 149
1928070S09060 1928 18 SI MM NOT_NAMED 1928-03-14 03:00:00 TS -23.2849 56.4002 main 227 227 _________P____ -1 -23.2849 56.4002 TC 25 9 155
1928070S09060 1928 18 SI MM NOT_NAMED 1928-03-14 06:00:00 TS -23.7000 56.6000 main 276 276 _________O____ -1 -23.7000 56.6000 TC 25 9 154
1928070S09060 1928 18 SI MM NOT_NAMED 1928-03-14 09:00:00 TS -24.1075 56.8351 main 325 325 _________P____ -1 -24.1075 56.8351 TC 25 9 150
1928070S09060 1928 18 SI MM NOT_NAMED 1928-03-14 12:00:00 TS -24.5000 57.1000 main 378 378 _________O____ -1 -24.5000 57.1000 TC 25 9 147
1928070S09060 1928 18 SI MM NOT_NAMED 1928-03-14 15:00:00 TS -24.8649 57.3852 main 432 432 _________P____ -1 -24.8649 57.3852 TC 25 9 142
1928070S09060 1928 18 SI MM NOT_NAMED 1928-03-14 18:00:00 TS -25.2000 57.7000 main 475 475 _________O____ -1 -25.2000 57.7000 TC 25 9 137
1928070S09060 1928 18 SI MM NOT_NAMED 1928-03-14 21:00:00 TS -25.5075 58.0427 main 519 519 _________P____ -1 -25.5075 58.0427 TC 25 9 134
1928070S09060 1928 18 SI MM NOT_NAMED 1928-03-15 00:00:00 TS -25.8000 58.4000 main 568 568 _________O____ -1 -25.8000 58.4000 TC 25 9 133
1928070S09060 1928 18 SI MM NOT_NAMED 1928-03-15 03:00:00 TS -26.0999 58.7502 main 617 617 _________P____ -1 -26.0999 58.7502 TC 25 9 134
1928070S09060 1928 18 SI MM NOT_NAMED 1928-03-15 06:00:00 TS -26.4000 59.1000 main 661 661 _________O____ -1 -26.4000 59.1000 TC 25 9 134
1928070S09060 1928 18 SI MM NOT_NAMED 1928-03-15 09:00:00 TS -26.7075 59.4576 main 710 710 _________P____ -1 -26.7075 59.4576 TC 25 9 134
1928070S09060 1928 18 SI MM NOT_NAMED 1928-03-15 12:00:00 TS -27.0000 59.8000 main 755 755 _________O____ -1 -27.0000 59.8000 TC 25 8 134
1928070S09060 1928 18 SI MM NOT_NAMED 1928-03-15 15:00:00 TS -27.2648 60.1002 main 798 798 _________P____ -1 -27.2648 60.1002 TC 25 7 133
1928070S09060 1928 18 SI MM NOT_NAMED 1928-03-15 18:00:00 TS -27.5000 60.4000 main 828 828 _________O____ -1 -27.5000 60.4000 TC 25 7 127
1928070S09060 1928 18 SI MM NOT_NAMED 1928-03-15 21:00:00 TS -27.6925 60.7428 main 860 860 _________P____ -1 -27.6925 60.7428 TC 25 7 123
1928070S09060 1928 18 SI MM NOT_NAMED 1928-03-16 00:00:00 TS -27.9000 61.1000 main 895 895 _________O____ -1 -27.9000 61.1000 TC 25 8 129
1928070S09060 1928 18 SI MM NOT_NAMED 1928-03-16 03:00:00 TS -28.1924 61.4425 main 938 938 _________P____ -1 -28.1924 61.4425 TC 25 9 134
1928070S09060 1928 18 SI MM NOT_NAMED 1928-03-16 06:00:00 TS -28.5000 61.8000 main 985 985 _________O____ -1 -28.5000 61.8000 TC 25 9 130
1928070S09060 1928 18 SI MM NOT_NAMED 1928-03-16 09:00:00 TS -28.7575 62.2002 main 1032 1032 _________P____ -1 -28.7575 62.2002 TC 25 9 125
1928070S09060 1928 18 SI MM NOT_NAMED 1928-03-16 12:00:00 TS -29.0000 62.6000 main 1070 1070 _________O____ -1 -29.0000 62.6000 TC 25 8 127
1928070S09060 1928 18 SI MM NOT_NAMED 1928-03-16 15:00:00 TS -29.2573 62.9502 main 1118 1118 _________P____ -1 -29.2573 62.9502 TC 25 8 129
1928070S09060 1928 18 SI MM NOT_NAMED 1928-03-16 18:00:00 TS -29.5000 63.3000 main 1152 1152 _________O____ -1 -29.5000 63.3000 TC 25 8 125
1928070S09060 1928 18 SI MM NOT_NAMED 1928-03-16 21:00:00 TS -29.7103 63.6872 main 1191 1191 _________P____ -1 -29.7103 63.6872 TC 25 8 120
1928070S09060 1928 18 SI MM NOT_NAMED 1928-03-17 00:00:00 TS -29.9000 64.1000 main 1230 _________O____ -1 -29.9000 64.1000 TC 25 8 118

IBTrACS Databaseについて

本データベースは、米国NOAAが公開する1842年以降の世界の熱帯低気圧のベストトラックデータアーカイブInternational Best Track Archive for Climate Stewardship (IBTrACS)を、ウェブで閲覧しやすい形式に変換したものです。

最終更新日:2021-11-26